Time;durP1;ratioP1;P1;durP2;ratioP2;P2;SDS_P1;SDS_P2;PMS_P1;PMS_P2;Temp;Humidity;BMP_temperature;BMP_pressure;BME280_temperature;BME280_humidity;BME280_pressure;Samples;Min_cycle;Max_cycle;Signal;HPM_P1;HPM_P2
2023/06/29 04:01:16;;;;;;;6.40;5.93;;;18.50;99.90;;;;;;5624757;22;21041;-68
2023/06/29 04:03:43;;;;;;;7.77;5.90;;;18.50;99.90;;;;;;4993227;28;20463;-67
2023/06/29 04:06:10;;;;;;;6.30;5.90;;;18.60;99.90;;;;;;4994815;28;20893;-69
2023/06/29 04:08:36;;;;;;;5.90;5.47;;;18.60;99.90;;;;;;4994200;28;20466;-68
2023/06/29 04:11:03;;;;;;;6.63;6.20;;;18.60;99.90;;;;;;4995085;28;20478;-66
2023/06/29 04:13:30;;;;;;;6.07;5.57;;;18.60;99.90;;;;;;4994691;28;20469;-67
2023/06/29 04:15:56;;;;;;;7.00;6.40;;;18.60;99.90;;;;;;4994283;28;20458;-69
2023/06/29 04:18:24;;;;;;;6.97;6.43;;;18.60;99.90;;;;;;4995045;28;20459;-68
2023/06/29 04:20:53;;;;;;;6.33;5.93;;;18.60;99.90;;;;;;4994101;28;20490;-67
2023/06/29 04:23:19;;;;;;;6.43;6.03;;;18.70;99.90;;;;;;4994226;28;20908;-67
2023/06/29 04:25:46;;;;;;;4.73;4.53;;;18.70;99.90;;;;;;4994192;28;20477;-68
2023/06/29 04:28:13;;;;;;;5.97;5.47;;;18.70;99.90;;;;;;4994189;28;20462;-67
2023/06/29 04:30:40;;;;;;;5.07;4.77;;;18.70;99.90;;;;;;4994195;28;20482;-67
2023/06/29 04:33:10;;;;;;;5.40;5.10;;;18.70;99.90;;;;;;4993660;28;20468;-68
2023/06/29 04:35:39;;;;;;;5.77;5.37;;;18.70;99.90;;;;;;4993959;28;20883;-68
2023/06/29 04:38:06;;;;;;;5.33;5.00;;;18.70;99.90;;;;;;4993439;28;20471;-68
2023/06/29 04:40:33;;;;;;;7.10;6.20;;;18.70;99.90;;;;;;4994262;28;20494;-69
2023/06/29 04:42:59;;;;;;;6.30;5.80;;;18.70;99.90;;;;;;5001487;28;20497;-68
2023/06/29 04:45:26;;;;;;;6.70;6.00;;;18.70;99.90;;;;;;5007420;28;20458;-67
2023/06/29 04:47:54;;;;;;;5.00;4.70;;;18.70;99.90;;;;;;5012769;28;21210;-68
2023/06/29 04:50:24;;;;;;;5.63;5.23;;;18.70;99.90;;;;;;5013663;28;20466;-69
2023/06/29 04:52:53;;;;;;;5.40;5.00;;;18.70;99.90;;;;;;5012666;28;20466;-71
2023/06/29 04:55:19;;;;;;;4.43;4.23;;;18.70;99.90;;;;;;5013521;28;20462;-69
2023/06/29 04:57:46;;;;;;;3.90;3.60;;;18.70;99.90;;;;;;5013418;28;20462;-68
2023/06/29 05:00:14;;;;;;;5.40;5.03;;;18.80;99.90;;;;;;5014141;28;20820;-69
2023/06/29 05:02:41;;;;;;;5.13;4.83;;;18.80;99.90;;;;;;5012337;28;20497;-69
2023/06/29 05:05:09;;;;;;;5.93;5.53;;;18.90;99.90;;;;;;5013379;28;20497;-69
2023/06/29 05:07:37;;;;;;;6.47;5.63;;;18.80;99.90;;;;;;5013425;28;20462;-69
2023/06/29 05:10:06;;;;;;;4.73;4.33;;;18.90;99.90;;;;;;5013966;28;20470;-68
2023/06/29 05:12:33;;;;;;;4.00;3.90;;;18.90;99.90;;;;;;5020776;28;20490;-71
2023/06/29 05:15:00;;;;;;;6.43;4.40;;;18.90;99.90;;;;;;5023605;28;20458;-70
2023/06/29 05:17:26;;;;;;;5.30;5.00;;;18.90;99.90;;;;;;5022974;28;20458;-72
2023/06/29 05:19:53;;;;;;;4.03;3.83;;;19.00;99.90;;;;;;5023942;28;20462;-72
2023/06/29 05:22:20;;;;;;;4.00;3.80;;;19.00;99.90;;;;;;5023746;28;20490;-70
2023/06/29 05:24:47;;;;;;;4.03;3.83;;;18.90;99.90;;;;;;5022753;28;20462;-72
2023/06/29 05:27:15;;;;;;;4.30;3.90;;;19.00;99.90;;;;;;5023347;28;20458;-70
2023/06/29 05:29:41;;;;;;;7.03;4.90;;;19.00;99.90;;;;;;5023666;28;20462;-67
2023/06/29 05:32:09;;;;;;;4.20;4.00;;;19.00;99.90;;;;;;5021859;28;21008;-69
2023/06/29 05:34:36;;;;;;;4.03;3.90;;;19.00;99.90;;;;;;5022351;28;20799;-71
2023/06/29 05:37:03;;;;;;;5.70;5.30;;;19.00;99.90;;;;;;5024193;28;20565;-69
2023/06/29 05:39:29;;;;;;;5.30;5.00;;;19.10;99.90;;;;;;5017798;28;20465;-69
2023/06/29 05:41:56;;;;;;;4.20;4.00;;;19.10;99.90;;;;;;5012053;28;20489;-69
2023/06/29 05:44:24;;;;;;;5.10;4.50;;;19.10;99.90;;;;;;5004511;28;20465;-69
2023/06/29 05:46:51;;;;;;;4.53;4.00;;;19.10;99.90;;;;;;5012226;28;20462;-68
2023/06/29 05:49:18;;;;;;;5.87;5.37;;;19.10;99.90;;;;;;5013160;28;20485;-69
2023/06/29 05:51:44;;;;;;;4.47;4.13;;;19.10;99.90;;;;;;5012285;28;20485;-69
2023/06/29 05:54:11;;;;;;;4.53;4.33;;;19.10;99.90;;;;;;5012010;28;20462;-69
2023/06/29 05:56:38;;;;;;;4.70;4.40;;;19.10;99.90;;;;;;5012622;28;20477;-69
2023/06/29 05:59:04;;;;;;;5.13;4.63;;;19.20;99.90;;;;;;5012408;28;20470;-69
2023/06/29 06:01:34;;;;;;;4.93;4.47;;;19.20;99.90;;;;;;5012282;28;20500;-69
2023/06/29 06:04:02;;;;;;;4.50;4.30;;;19.30;99.90;;;;;;5012292;28;20601;-69
2023/06/29 06:06:30;;;;;;;3.90;3.70;;;19.30;99.90;;;;;;5012283;28;20817;-69
2023/06/29 06:08:57;;;;;;;4.57;4.37;;;19.40;99.90;;;;;;5011671;28;20524;-69
2023/06/29 06:11:23;;;;;;;3.40;3.30;;;19.40;99.90;;;;;;5011957;28;20493;-69
2023/06/29 06:13:50;;;;;;;6.33;4.90;;;19.40;99.90;;;;;;5011959;28;20457;-69
2023/06/29 06:16:17;;;;;;;5.20;4.70;;;19.40;99.90;;;;;;5011131;28;20465;-69
2023/06/29 06:18:45;;;;;;;4.57;4.27;;;19.50;99.90;;;;;;5011749;28;20462;-69
2023/06/29 06:21:12;;;;;;;4.47;4.27;;;19.50;99.90;;;;;;5012044;28;20482;-69
2023/06/29 06:23:39;;;;;;;6.13;5.63;;;19.60;99.90;;;;;;5011802;28;20482;-69
2023/06/29 06:26:05;;;;;;;5.27;4.90;;;19.50;99.90;;;;;;5012005;28;20458;-70
2023/06/29 06:28:32;;;;;;;4.50;4.30;;;19.50;99.90;;;;;;5012093;28;20473;-69
2023/06/29 06:30:59;;;;;;;4.03;3.73;;;19.50;99.90;;;;;;5011266;28;20490;-68
2023/06/29 06:33:30;;;;;;;4.83;4.53;;;19.50;99.90;;;;;;5011824;28;20466;-69
2023/06/29 06:35:58;;;;;;;4.70;4.40;;;19.60;99.90;;;;;;5012788;28;20466;-69
2023/06/29 06:38:25;;;;;;;5.47;5.07;;;19.70;99.90;;;;;;5012691;28;20826;-68
2023/06/29 06:40:52;;;;;;;4.43;4.10;;;19.70;99.90;;;;;;5012718;28;20501;-69
2023/06/29 06:43:19;;;;;;;4.70;4.40;;;19.70;99.90;;;;;;4990135;28;20486;-67
2023/06/29 06:45:45;;;;;;;3.83;3.70;;;19.70;99.90;;;;;;5008375;28;20549;-67
2023/06/29 06:48:12;;;;;;;5.10;4.60;;;19.70;99.90;;;;;;5011271;28;20463;-67
2023/06/29 06:50:39;;;;;;;4.40;4.20;;;19.70;99.90;;;;;;5011608;28;20508;-67
2023/06/29 06:53:07;;;;;;;5.17;4.80;;;19.80;99.90;;;;;;5010371;28;20485;-67
2023/06/29 06:55:34;;;;;;;4.00;3.87;;;19.90;99.90;;;;;;5011107;28;20467;-67
2023/06/29 06:58:00;;;;;;;4.47;4.27;;;19.90;99.90;;;;;;5010982;28;20521;-67
2023/06/29 07:00:27;;;;;;;6.37;4.87;;;20.00;99.90;;;;;;5011183;28;20466;-67
2023/06/29 07:02:54;;;;;;;3.90;3.73;;;20.00;99.90;;;;;;5010575;28;20537;-69
2023/06/29 07:05:21;;;;;;;5.00;4.70;;;20.10;99.90;;;;;;5010960;28;20470;-68
2023/06/29 07:07:51;;;;;;;5.10;4.70;;;20.20;99.90;;;;;;5010627;28;21025;-68
2023/06/29 07:10:19;;;;;;;3.90;3.70;;;20.40;99.90;;;;;;5011178;28;20574;-69
2023/06/29 07:12:46;;;;;;;4.43;4.13;;;20.50;99.90;;;;;;5011246;28;20470;-69
2023/06/29 07:15:12;;;;;;;4.03;3.93;;;20.60;99.90;;;;;;5010992;28;20495;-68
2023/06/29 07:17:39;;;;;;;5.23;4.93;;;20.70;99.90;;;;;;5010253;28;20574;-68
2023/06/29 07:20:07;;;;;;;4.47;4.20;;;20.90;99.90;;;;;;5010867;28;20463;-68
2023/06/29 07:22:34;;;;;;;4.30;4.10;;;21.00;99.90;;;;;;5010000;28;20587;-68
2023/06/29 07:25:01;;;;;;;3.83;3.53;;;21.10;99.90;;;;;;5010730;28;20469;-68
2023/06/29 07:27:29;;;;;;;4.97;4.23;;;21.30;99.90;;;;;;5009882;28;20961;-68
2023/06/29 07:29:55;;;;;;;5.53;4.47;;;21.50;99.90;;;;;;5010923;28;20461;-68
2023/06/29 07:32:22;;;;;;;4.73;4.40;;;21.60;99.90;;;;;;5009723;28;20490;-68
2023/06/29 07:34:49;;;;;;;4.03;3.83;;;21.80;99.90;;;;;;5009702;28;20799;-68
2023/06/29 07:37:15;;;;;;;4.40;4.10;;;21.90;99.90;;;;;;5010107;28;20473;-68
2023/06/29 07:39:42;;;;;;;3.83;3.63;;;22.00;99.90;;;;;;5009712;28;20469;-67
2023/06/29 07:42:09;;;;;;;3.60;3.40;;;22.10;99.90;;;;;;5006252;28;20495;-68
2023/06/29 07:44:37;;;;;;;4.90;4.60;;;22.40;99.90;;;;;;4990710;28;20583;-68
2023/06/29 07:47:04;;;;;;;5.60;5.20;;;22.90;99.90;;;;;;4990272;28;20466;-68
2023/06/29 07:49:31;;;;;;;3.80;3.63;;;23.40;99.90;;;;;;4990747;28;20463;-68
2023/06/29 07:51:58;;;;;;;4.40;4.10;;;23.70;99.90;;;;;;4990914;28;20484;-68
2023/06/29 07:54:25;;;;;;;3.97;3.77;;;23.90;99.90;;;;;;4990505;28;20483;-68
2023/06/29 07:56:51;;;;;;;3.37;3.27;;;24.20;99.90;;;;;;4990894;28;20846;-68
2023/06/29 07:59:18;;;;;;;3.97;3.67;;;24.30;99.90;;;;;;4990864;28;20478;-69
2023/06/29 08:01:48;;;;;;;4.17;3.87;;;24.50;99.90;;;;;;4990104;28;21041;-68
2023/06/29 08:04:15;;;;;;;3.83;3.50;;;24.70;99.90;;;;;;4990487;28;21070;-68
2023/06/29 08:06:43;;;;;;;4.40;4.10;;;24.90;99.90;;;;;;4991038;28;20474;-67
2023/06/29 08:09:10;;;;;;;4.77;4.37;;;25.10;99.90;;;;;;4990229;28;20466;-68
2023/06/29 08:11:37;;;;;;;4.00;3.80;;;25.20;99.90;;;;;;4990642;28;20483;-68
2023/06/29 08:14:04;;;;;;;4.40;4.00;;;25.30;99.90;;;;;;4990375;28;20926;-68
2023/06/29 08:16:31;;;;;;;4.83;4.37;;;25.20;99.90;;;;;;4989811;28;20477;-68
2023/06/29 08:19:00;;;;;;;5.03;4.57;;;25.00;99.90;;;;;;4990499;28;20484;-68
2023/06/29 08:21:26;;;;;;;5.20;4.73;;;25.10;99.90;;;;;;4990363;28;20486;-68
2023/06/29 08:23:53;;;;;;;3.47;3.27;;;25.20;99.90;;;;;;4989956;28;20497;-68
2023/06/29 08:26:21;;;;;;;5.17;4.77;;;25.30;99.90;;;;;;4990420;28;20484;-68
2023/06/29 08:28:47;;;;;;;4.90;4.47;;;25.30;99.90;;;;;;4990989;28;20461;-68
2023/06/29 08:31:14;;;;;;;4.60;4.23;;;25.30;99.90;;;;;;4990004;28;20599;-69
2023/06/29 08:33:41;;;;;;;5.63;5.10;;;25.40;99.90;;;;;;4990411;28;20936;-67
2023/06/29 08:36:09;;;;;;;6.90;6.40;;;25.20;99.90;;;;;;4990544;28;20472;-67
2023/06/29 08:38:36;;;;;;;6.90;5.37;;;24.80;99.90;;;;;;4992546;28;20778;-69
2023/06/29 08:41:05;;;;;;;5.67;4.93;;;24.80;99.90;;;;;;4994174;28;20492;-69
2023/06/29 08:43:32;;;;;;;6.33;5.07;;;25.10;99.90;;;;;;4993908;28;20500;-69
2023/06/29 08:45:58;;;;;;;6.60;5.60;;;25.30;99.90;;;;;;4993005;28;20465;-69
2023/06/29 08:48:26;;;;;;;4.73;4.33;;;25.60;99.90;;;;;;4994186;28;20470;-69
2023/06/29 08:50:55;;;;;;;5.93;5.33;;;25.80;99.90;;;;;;4994041;28;20493;-69
2023/06/29 08:53:23;;;;;;;6.60;5.00;;;25.70;99.90;;;;;;4993467;28;20831;-69
2023/06/29 08:55:51;;;;;;;8.63;5.20;;;25.60;99.90;;;;;;4993414;28;20477;-69
2023/06/29 08:58:21;;;;;;;5.90;5.40;;;25.40;99.90;;;;;;4993363;28;20476;-69
2023/06/29 09:00:49;;;;;;;5.33;4.93;;;25.20;99.90;;;;;;4993457;28;20493;-69
2023/06/29 09:03:17;;;;;;;5.47;5.07;;;25.10;99.90;;;;;;4993266;28;20862;-69
2023/06/29 09:05:45;;;;;;;4.97;4.67;;;24.90;99.90;;;;;;4993302;28;20464;-69
2023/06/29 09:08:12;;;;;;;4.87;4.47;;;24.80;99.90;;;;;;4992952;28;20867;-69
2023/06/29 09:10:42;;;;;;;6.40;5.70;;;24.70;99.90;;;;;;4993328;28;20493;-69
2023/06/29 09:13:09;;;;;;;6.93;5.80;;;24.90;99.90;;;;;;4993327;28;20960;-69
2023/06/29 09:15:38;;;;;;;5.20;4.80;;;24.80;99.90;;;;;;4993232;28;20537;-69
2023/06/29 09:18:05;;;;;;;4.83;4.43;;;24.70;99.90;;;;;;4992798;28;20463;-69
2023/06/29 09:20:34;;;;;;;6.50;5.90;;;24.70;99.90;;;;;;4993237;28;20483;-69
2023/06/29 09:23:02;;;;;;;6.97;5.40;;;24.80;99.90;;;;;;4992579;28;20481;-69
2023/06/29 09:25:30;;;;;;;5.37;4.87;;;25.00;99.90;;;;;;4994723;28;20471;-69
2023/06/29 09:28:06;;;;;;;5.50;4.90;;;25.00;99.90;;;;;;4992935;28;20493;-69
2023/06/29 09:30:38;;;;;;;5.10;4.60;;;25.00;99.90;;;;;;4992911;28;20484;-69
2023/06/29 09:33:10;;;;;;;4.90;4.60;;;24.90;99.90;;;;;;4992638;28;20462;-69
2023/06/29 09:35:38;;;;;;;6.47;5.70;;;24.90;99.90;;;;;;4992610;28;20520;-69
2023/06/29 09:38:05;;;;;;;8.30;4.70;;;24.90;99.90;;;;;;4992687;28;20524;-69
2023/06/29 09:40:32;;;;;;;5.23;4.87;;;24.90;99.90;;;;;;4993059;28;20581;-69
2023/06/29 09:43:05;;;;;;;8.13;6.03;;;25.00;99.90;;;;;;4993131;28;20527;-69
2023/06/29 09:45:33;;;;;;;5.70;5.07;;;25.10;99.90;;;;;;4993124;28;20466;-70
2023/06/29 09:48:00;;;;;;;6.90;6.03;;;25.10;99.90;;;;;;4992703;28;20460;-69
2023/06/29 09:50:27;;;;;;;8.20;6.73;;;25.00;99.90;;;;;;4992274;28;20962;-69
2023/06/29 09:52:54;;;;;;;9.30;6.37;;;25.00;99.90;;;;;;4991983;28;20467;-68
2023/06/29 09:55:29;;;;;;;6.07;5.50;;;25.10;99.90;;;;;;4992193;28;20469;-68
2023/06/29 09:57:58;;;;;;;7.60;6.10;;;25.30;99.90;;;;;;4992491;28;20460;-68
2023/06/29 10:00:27;;;;;;;6.00;5.43;;;25.60;99.90;;;;;;4992164;28;20468;-68
2023/06/29 10:02:55;;;;;;;7.53;5.60;;;25.60;99.90;;;;;;4991909;28;20464;-68
2023/06/29 10:05:22;;;;;;;5.63;5.23;;;25.70;99.90;;;;;;4992480;28;20465;-68
2023/06/29 10:07:53;;;;;;;6.30;5.73;;;25.90;99.90;;;;;;4991730;28;20469;-67
2023/06/29 10:10:23;;;;;;;7.60;6.13;;;26.00;99.90;;;;;;4992407;28;20469;-67
2023/06/29 10:12:54;;;;;;;5.73;5.30;;;26.20;99.90;;;;;;4992180;28;20512;-67
2023/06/29 10:15:25;;;;;;;5.60;5.20;;;26.20;99.90;;;;;;4991784;28;20466;-67
2023/06/29 10:18:02;;;;;;;5.47;4.93;;;26.10;99.90;;;;;;4992464;28;20950;-67
2023/06/29 10:20:32;;;;;;;6.97;5.97;;;26.10;99.90;;;;;;4992586;28;20466;-66
2023/06/29 10:23:02;;;;;;;8.80;6.27;;;26.10;99.90;;;;;;4991784;28;20492;-66
2023/06/29 10:25:34;;;;;;;7.70;7.00;;;26.00;99.90;;;;;;4991779;28;20458;-67
2023/06/29 10:28:02;;;;;;;6.80;5.43;;;25.90;99.90;;;;;;4992228;28;20465;-66
2023/06/29 10:30:28;;;;;;;6.53;4.83;;;25.90;99.90;;;;;;4992125;28;20473;-66
2023/06/29 10:32:58;;;;;;;7.10;5.27;;;26.00;99.90;;;;;;4991653;28;20472;-67
2023/06/29 10:35:25;;;;;;;5.10;4.70;;;26.10;99.90;;;;;;4991695;28;20981;-68
2023/06/29 10:37:58;;;;;;;5.53;5.03;;;26.20;99.90;;;;;;4991372;28;20591;-68
2023/06/29 10:40:25;;;;;;;6.80;6.20;;;26.20;99.90;;;;;;4991979;28;20473;-67
2023/06/29 10:42:57;;;;;;;5.87;5.37;;;26.20;99.90;;;;;;4991567;28;20503;-68
2023/06/29 10:45:34;;;;;;;5.87;5.30;;;26.10;99.90;;;;;;5006340;28;20485;-68
2023/06/29 10:48:04;;;;;;;10.00;6.53;;;26.20;99.90;;;;;;5010686;28;20469;-68
2023/06/29 10:50:32;;;;;;;6.33;5.77;;;26.40;99.90;;;;;;5011048;28;20484;-68
2023/06/29 10:53:00;;;;;;;4.90;4.57;;;26.20;99.90;;;;;;5010746;28;20475;-67
2023/06/29 10:55:28;;;;;;;6.77;4.70;;;26.10;99.90;;;;;;5011093;28;20491;-67
2023/06/29 10:57:56;;;;;;;9.00;5.20;;;26.10;99.90;;;;;;5010815;28;20463;-67
2023/06/29 11:00:25;;;;;;;6.27;5.13;;;26.20;99.90;;;;;;5010721;28;20470;-67
2023/06/29 11:02:53;;;;;;;4.67;4.40;;;26.10;99.90;;;;;;5010225;28;20460;-67
2023/06/29 11:05:22;;;;;;;4.30;4.00;;;26.10;99.90;;;;;;5010902;28;20613;-67
2023/06/29 11:07:51;;;;;;;9.27;5.73;;;26.20;99.90;;;;;;5010551;28;20501;-67
2023/06/29 11:10:19;;;;;;;6.60;5.70;;;26.30;99.90;;;;;;5011044;28;20469;-67
2023/06/29 11:12:46;;;;;;;6.43;5.93;;;26.50;99.90;;;;;;5010834;28;20504;-68
2023/06/29 11:15:14;;;;;;;7.57;5.50;;;26.60;99.90;;;;;;5010755;28;20458;-67
2023/06/29 11:17:41;;;;;;;5.87;5.33;;;26.60;99.90;;;;;;5010079;28;20468;-67
2023/06/29 11:20:13;;;;;;;6.00;5.40;;;26.40;99.90;;;;;;5011030;28;20468;-67
2023/06/29 11:22:41;;;;;;;5.60;5.13;;;26.30;99.90;;;;;;5010416;28;20468;-68
2023/06/29 11:25:09;;;;;;;6.37;5.30;;;26.20;99.90;;;;;;5010768;28;20492;-66
2023/06/29 11:27:35;;;;;;;5.30;4.90;;;26.00;99.90;;;;;;5010341;28;20463;-68
2023/06/29 11:30:06;;;;;;;5.43;4.93;;;25.70;99.90;;;;;;5010774;28;20557;-68
2023/06/29 11:32:34;;;;;;;7.33;4.93;;;25.60;99.90;;;;;;5010415;28;20862;-68
2023/06/29 11:35:01;;;;;;;5.20;4.60;;;25.60;99.90;;;;;;5010732;28;20461;-68
2023/06/29 11:37:28;;;;;;;6.30;5.70;;;25.40;99.90;;;;;;5010552;28;20575;-68
2023/06/29 11:39:56;;;;;;;13.00;5.60;;;25.50;99.90;;;;;;5010669;28;20865;-69
2023/06/29 11:42:25;;;;;;;6.13;5.57;;;25.60;99.90;;;;;;5004482;28;20492;-68
2023/06/29 11:45:01;;;;;;;6.27;5.67;;;25.40;99.90;;;;;;4990394;28;20489;-68
2023/06/29 11:47:28;;;;;;;7.40;6.00;;;25.30;99.90;;;;;;4990835;28;20547;-69
2023/06/29 11:49:57;;;;;;;6.13;5.53;;;25.10;99.90;;;;;;4991200;28;20533;-68
2023/06/29 11:52:24;;;;;;;4.57;4.27;;;25.00;99.90;;;;;;4990998;28;20542;-68
2023/06/29 11:54:51;;;;;;;7.00;5.57;;;25.00;99.90;;;;;;4990241;28;20468;-68
2023/06/29 11:57:20;;;;;;;6.13;5.37;;;25.00;99.90;;;;;;4990612;28;20470;-69
2023/06/29 11:59:47;;;;;;;5.20;4.70;;;25.10;99.90;;;;;;4991024;28;20482;-68
2023/06/29 12:02:14;;;;;;;5.70;5.33;;;25.20;99.90;;;;;;4990477;28;20550;-70
2023/06/29 12:04:55;;;;;;;5.73;5.33;;;25.30;99.90;;;;;;4990761;28;20489;-68
2023/06/29 12:07:35;;;;;;;6.57;5.90;;;25.20;99.90;;;;;;4991022;28;20517;-69
2023/06/29 12:10:03;;;;;;;5.83;5.23;;;25.00;99.90;;;;;;4991124;28;20505;-68
2023/06/29 12:12:35;;;;;;;6.63;5.60;;;24.70;99.90;;;;;;4991397;28;20991;-68
2023/06/29 12:15:15;;;;;;;7.47;6.60;;;24.70;99.90;;;;;;4994500;28;20458;-68
2023/06/29 12:17:42;;;;;;;7.80;5.93;;;24.70;99.90;;;;;;4993977;28;20781;-69
2023/06/29 12:20:17;;;;;;;5.90;5.30;;;24.70;99.90;;;;;;4994396;28;20468;-68
2023/06/29 12:22:45;;;;;;;8.73;5.03;;;24.80;99.90;;;;;;4994092;28;20474;-69
2023/06/29 12:25:13;;;;;;;5.33;4.83;;;25.00;99.90;;;;;;4994312;28;20498;-68
2023/06/29 12:27:43;;;;;;;9.40;5.00;;;25.10;99.90;;;;;;4994111;28;20527;-68
2023/06/29 12:30:14;;;;;;;6.97;5.97;;;25.30;99.90;;;;;;4994391;28;20887;-68
2023/06/29 12:32:41;;;;;;;6.60;6.00;;;25.40;99.90;;;;;;4993564;28;20547;-69
2023/06/29 12:35:07;;;;;;;6.30;5.63;;;25.50;99.90;;;;;;4995016;28;20469;-67
2023/06/29 12:37:34;;;;;;;6.27;5.77;;;25.70;99.90;;;;;;4994519;28;20465;-68
2023/06/29 12:40:04;;;;;;;6.33;5.80;;;25.80;99.90;;;;;;4995300;28;20488;-66
2023/06/29 12:42:31;;;;;;;7.10;5.10;;;25.90;99.90;;;;;;4995532;28;20488;-69
2023/06/29 12:44:59;;;;;;;6.10;5.43;;;26.10;99.90;;;;;;4994902;28;20498;-67
2023/06/29 12:47:25;;;;;;;9.37;6.27;;;26.20;99.90;;;;;;4993422;28;20468;-68
2023/06/29 12:49:52;;;;;;;7.40;6.17;;;25.80;99.90;;;;;;4993890;28;20473;-68
2023/06/29 12:52:19;;;;;;;7.40;5.83;;;25.50;99.90;;;;;;4993548;28;20491;-67
2023/06/29 12:54:46;;;;;;;9.03;5.53;;;25.50;99.90;;;;;;4992915;28;20519;-66
2023/06/29 12:57:13;;;;;;;6.30;5.63;;;25.40;99.90;;;;;;4993457;28;20465;-69
2023/06/29 12:59:40;;;;;;;6.90;6.07;;;25.30;99.90;;;;;;4993628;28;20464;-67
2023/06/29 13:02:08;;;;;;;7.27;5.63;;;25.20;99.90;;;;;;4993175;28;20541;-68
2023/06/29 13:04:38;;;;;;;7.10;6.23;;;25.20;99.90;;;;;;4993326;28;20491;-68
2023/06/29 13:07:05;;;;;;;5.70;5.27;;;25.20;99.90;;;;;;4993501;28;20854;-67
2023/06/29 13:09:32;;;;;;;7.13;5.40;;;25.00;99.90;;;;;;4993037;28;20471;-67
2023/06/29 13:12:00;;;;;;;5.53;5.13;;;24.90;99.90;;;;;;4993248;28;20565;-68
2023/06/29 13:14:28;;;;;;;12.13;6.20;;;24.80;99.90;;;;;;4992916;28;20521;-68
2023/06/29 13:16:56;;;;;;;7.00;5.60;;;24.80;99.90;;;;;;4992935;28;20465;-69
2023/06/29 13:19:25;;;;;;;7.03;6.33;;;24.90;99.90;;;;;;4993318;28;20470;-67
2023/06/29 13:21:52;;;;;;;7.50;6.33;;;25.00;99.90;;;;;;4993533;28;20485;-68
2023/06/29 13:24:18;;;;;;;6.10;5.50;;;24.90;99.90;;;;;;4991613;28;20490;-67
2023/06/29 13:26:45;;;;;;;6.70;6.10;;;24.60;99.90;;;;;;4992797;28;20994;-67
2023/06/29 13:29:12;;;;;;;5.43;5.03;;;24.50;99.90;;;;;;4993287;28;20489;-66
2023/06/29 13:31:39;;;;;;;6.77;6.07;;;24.40;99.90;;;;;;4992826;28;21013;-67
2023/06/29 13:34:06;;;;;;;5.83;5.30;;;24.20;99.90;;;;;;4992767;28;20463;-68
2023/06/29 13:36:35;;;;;;;5.73;5.20;;;24.10;99.90;;;;;;4993021;28;20469;-67
2023/06/29 13:39:02;;;;;;;6.20;5.60;;;24.10;99.90;;;;;;4992508;28;20469;-67
2023/06/29 13:41:39;;;;;;;7.37;5.80;;;24.10;99.90;;;;;;4992415;28;20508;-68
2023/06/29 13:44:07;;;;;;;8.97;6.43;;;24.30;99.90;;;;;;4991933;28;20621;-69
2023/06/29 13:46:34;;;;;;;5.33;4.93;;;24.30;99.90;;;;;;4991877;28;20473;-69
2023/06/29 13:49:01;;;;;;;8.87;6.37;;;24.40;99.90;;;;;;4992535;28;20466;-68
2023/06/29 13:51:29;;;;;;;9.90;7.50;;;24.30;99.90;;;;;;4992592;28;20497;-68
2023/06/29 13:53:58;;;;;;;6.93;5.60;;;24.40;99.90;;;;;;4991221;28;20470;-69
2023/06/29 13:56:25;;;;;;;6.07;5.00;;;24.40;99.90;;;;;;4991877;28;20913;-69
2023/06/29 13:58:53;;;;;;;9.33;6.03;;;24.40;99.90;;;;;;4992054;28;20465;-68
2023/06/29 14:01:20;;;;;;;6.70;6.00;;;24.40;99.90;;;;;;4991591;28;20576;-69
2023/06/29 14:03:47;;;;;;;7.07;5.70;;;24.40;99.90;;;;;;4991901;28;20470;-69
2023/06/29 14:06:18;;;;;;;7.53;5.83;;;24.50;99.90;;;;;;4991472;28;20851;-69
2023/06/29 14:08:44;;;;;;;10.10;6.60;;;24.50;99.90;;;;;;4991439;28;20451;-70
2023/06/29 14:11:13;;;;;;;9.00;6.13;;;24.50;99.90;;;;;;4992284;28;20512;-69
2023/06/29 14:13:40;;;;;;;11.93;5.70;;;24.40;99.90;;;;;;4991977;28;20466;-68
2023/06/29 14:16:07;;;;;;;5.50;4.73;;;24.50;99.90;;;;;;4991568;28;20468;-69
2023/06/29 14:18:33;;;;;;;7.53;6.73;;;24.50;99.90;;;;;;4991931;28;20470;-67
2023/06/29 14:21:00;;;;;;;7.57;5.93;;;24.60;99.90;;;;;;4991966;28;20487;-68
2023/06/29 14:23:27;;;;;;;6.13;5.10;;;24.70;99.90;;;;;;4992017;28;20597;-69
2023/06/29 14:25:53;;;;;;;7.83;5.73;;;24.70;99.90;;;;;;4991141;28;20988;-67
2023/06/29 14:28:21;;;;;;;6.87;6.27;;;24.80;99.90;;;;;;4991297;28;20463;-67
2023/06/29 14:30:48;;;;;;;6.27;5.13;;;24.90;99.90;;;;;;4991320;28;20495;-67
2023/06/29 14:33:15;;;;;;;7.27;6.17;;;24.90;99.90;;;;;;4990895;28;20467;-67
2023/06/29 14:35:41;;;;;;;5.70;5.20;;;25.00;99.90;;;;;;4990738;28;20466;-67
2023/06/29 14:38:08;;;;;;;8.10;6.30;;;25.10;99.90;;;;;;4990679;28;20484;-69
2023/06/29 14:40:36;;;;;;;11.40;6.43;;;25.20;99.90;;;;;;4991602;28;20494;-68
2023/06/29 14:43:03;;;;;;;8.27;6.03;;;25.30;99.90;;;;;;4985279;28;20495;-68
2023/06/29 14:45:31;;;;;;;5.70;5.20;;;25.30;99.90;;;;;;4990708;28;20484;-68
2023/06/29 14:47:57;;;;;;;7.63;5.33;;;25.30;99.90;;;;;;4990265;28;20476;-69
2023/06/29 14:50:24;;;;;;;6.47;5.30;;;25.10;99.90;;;;;;4990725;28;20472;-69
2023/06/29 14:52:51;;;;;;;6.47;5.70;;;25.10;99.90;;;;;;4990365;28;20829;-68
2023/06/29 14:55:18;;;;;;;6.33;5.50;;;25.30;99.90;;;;;;4990850;28;20460;-69
2023/06/29 14:57:44;;;;;;;5.97;5.43;;;25.40;99.90;;;;;;4990713;28;20466;-69
2023/06/29 15:00:12;;;;;;;6.30;5.50;;;25.60;99.90;;;;;;4990895;28;20471;-68
2023/06/29 15:02:40;;;;;;;6.90;6.30;;;25.60;99.90;;;;;;4990162;28;20474;-68
2023/06/29 15:05:07;;;;;;;7.17;5.80;;;25.50;99.90;;;;;;4990585;28;20490;-66
2023/06/29 15:07:34;;;;;;;8.20;5.50;;;25.50;99.90;;;;;;4990433;28;20467;-67
2023/06/29 15:10:01;;;;;;;5.80;5.30;;;25.50;99.90;;;;;;4990843;28;20470;-68
2023/06/29 15:12:29;;;;;;;7.20;5.60;;;25.50;99.90;;;;;;4990311;28;20957;-67
2023/06/29 15:14:55;;;;;;;7.23;6.23;;;25.60;99.90;;;;;;4989829;28;20918;-67
2023/06/29 15:17:24;;;;;;;7.13;6.40;;;25.60;99.90;;;;;;4989645;28;20468;-68
2023/06/29 15:19:53;;;;;;;5.63;5.13;;;25.50;99.90;;;;;;4990084;28;20530;-69
2023/06/29 15:22:20;;;;;;;6.00;5.50;;;25.50;99.90;;;;;;4997144;28;20516;-69
2023/06/29 15:24:46;;;;;;;11.13;7.27;;;25.40;99.90;;;;;;4996325;28;20807;-69
2023/06/29 15:27:13;;;;;;;8.20;6.47;;;25.00;99.90;;;;;;4995960;28;20477;-69
2023/06/29 15:29:40;;;;;;;8.67;6.73;;;24.90;99.90;;;;;;4996331;28;20466;-69
2023/06/29 15:32:07;;;;;;;7.77;6.97;;;24.80;99.90;;;;;;4997536;28;20489;-69
2023/06/29 15:34:34;;;;;;;6.13;5.50;;;24.70;99.90;;;;;;4998683;28;20528;-71
2023/06/29 15:37:02;;;;;;;11.70;6.20;;;24.70;99.90;;;;;;4997877;28;21038;-69
2023/06/29 15:39:29;;;;;;;12.30;6.57;;;24.70;99.90;;;;;;4998306;28;20619;-70
2023/06/29 15:41:56;;;;;;;6.23;5.63;;;24.50;99.90;;;;;;4997113;28;20496;-70
2023/06/29 15:44:22;;;;;;;8.40;6.00;;;24.50;99.90;;;;;;5011476;28;20871;-70
2023/06/29 15:46:52;;;;;;;6.87;5.70;;;24.40;99.90;;;;;;4994961;28;20500;-70
2023/06/29 15:49:19;;;;;;;6.70;6.20;;;24.30;99.90;;;;;;4999579;28;20487;-69
2023/06/29 15:51:46;;;;;;;9.93;6.53;;;24.20;99.90;;;;;;4999395;28;20491;-70
2023/06/29 15:54:14;;;;;;;7.20;6.50;;;24.20;99.90;;;;;;4999812;28;20471;-70
2023/06/29 15:56:41;;;;;;;7.90;7.13;;;24.20;99.90;;;;;;5000155;28;20555;-69
2023/06/29 15:59:08;;;;;;;6.37;5.73;;;24.30;99.90;;;;;;4999714;28;20459;-70
2023/06/29 16:01:36;;;;;;;7.33;6.83;;;24.30;99.90;;;;;;5001041;28;20508;-70
2023/06/29 16:04:03;;;;;;;7.00;6.27;;;24.30;99.90;;;;;;4999660;28;20465;-70
2023/06/29 16:06:31;;;;;;;7.00;6.37;;;24.40;99.90;;;;;;4999705;28;20483;-70
2023/06/29 16:08:59;;;;;;;7.00;6.30;;;24.50;99.90;;;;;;4998414;28;20830;-70
2023/06/29 16:11:27;;;;;;;11.93;6.77;;;24.60;99.90;;;;;;4998781;28;20492;-70
2023/06/29 16:13:55;;;;;;;13.10;7.67;;;24.70;99.90;;;;;;4998619;28;20473;-69
2023/06/29 16:16:22;;;;;;;6.67;6.10;;;24.70;99.90;;;;;;4998516;28;20470;-70
2023/06/29 16:18:48;;;;;;;7.33;6.67;;;24.70;99.90;;;;;;4995954;28;20473;-69
2023/06/29 16:21:16;;;;;;;7.87;7.07;;;24.70;99.90;;;;;;4993776;28;20490;-69
2023/06/29 16:23:42;;;;;;;10.30;7.77;;;24.70;99.90;;;;;;4993169;28;20504;-69
2023/06/29 16:26:09;;;;;;;9.03;6.50;;;24.70;99.90;;;;;;4993148;28;20878;-69
2023/06/29 16:28:37;;;;;;;15.00;7.17;;;24.70;99.90;;;;;;4993435;28;20465;-69
2023/06/29 16:31:04;;;;;;;6.23;5.73;;;24.80;99.90;;;;;;4992924;28;20866;-69
2023/06/29 16:33:31;;;;;;;6.70;6.10;;;24.70;99.90;;;;;;4993318;28;20469;-69
2023/06/29 16:35:57;;;;;;;7.07;6.37;;;24.70;99.90;;;;;;4992804;28;20477;-69
2023/06/29 16:38:24;;;;;;;6.73;5.43;;;24.70;99.90;;;;;;4992858;28;20466;-69
2023/06/29 16:40:51;;;;;;;7.23;6.53;;;24.70;99.90;;;;;;4993173;28;20485;-69
2023/06/29 16:43:18;;;;;;;6.47;5.87;;;24.70;99.90;;;;;;5001426;28;20483;-69
2023/06/29 16:45:46;;;;;;;8.47;7.57;;;24.80;99.90;;;;;;5012254;28;20900;-69
2023/06/29 16:48:13;;;;;;;8.50;7.00;;;24.80;99.90;;;;;;5011910;28;20466;-68